sensor_id;sensor_type;location;lat;lon;timestamp;P1;durP1;ratioP1;P2;durP2;ratioP2
51612;SDS011;37694;51.748;14.326;2024-01-30T00:01:50;11.35;;;8.02;;
51612;SDS011;37694;51.748;14.326;2024-01-30T00:04:16;11.60;;;8.00;;
51612;SDS011;37694;51.748;14.326;2024-01-30T00:06:42;10.68;;;8.48;;
51612;SDS011;37694;51.748;14.326;2024-01-30T00:09:08;9.30;;;7.43;;
51612;SDS011;37694;51.748;14.326;2024-01-30T00:11:35;10.48;;;8.18;;
51612;SDS011;37694;51.748;14.326;2024-01-30T00:14:01;10.00;;;8.40;;
51612;SDS011;37694;51.748;14.326;2024-01-30T00:16:28;9.95;;;8.07;;
51612;SDS011;37694;51.748;14.326;2024-01-30T00:18:54;8.80;;;7.53;;
51612;SDS011;37694;51.748;14.326;2024-01-30T00:21:20;8.88;;;7.93;;
51612;SDS011;37694;51.748;14.326;2024-01-30T00:23:46;11.20;;;8.27;;
51612;SDS011;37694;51.748;14.326;2024-01-30T00:26:13;10.18;;;8.02;;
51612;SDS011;37694;51.748;14.326;2024-01-30T00:28:40;8.85;;;7.75;;
51612;SDS011;37694;51.748;14.326;2024-01-30T00:31:06;9.00;;;7.85;;
51612;SDS011;37694;51.748;14.326;2024-01-30T00:33:31;8.82;;;7.68;;
51612;SDS011;37694;51.748;14.326;2024-01-30T00:35:57;9.82;;;8.15;;
51612;SDS011;37694;51.748;14.326;2024-01-30T00:38:23;11.52;;;7.85;;
51612;SDS011;37694;51.748;14.326;2024-01-30T00:40:48;9.50;;;7.82;;
51612;SDS011;37694;51.748;14.326;2024-01-30T00:43:15;10.13;;;8.32;;
51612;SDS011;37694;51.748;14.326;2024-01-30T00:45:40;9.38;;;7.70;;
51612;SDS011;37694;51.748;14.326;2024-01-30T00:48:06;9.20;;;8.20;;
51612;SDS011;37694;51.748;14.326;2024-01-30T00:50:32;8.88;;;7.53;;
51612;SDS011;37694;51.748;14.326;2024-01-30T00:52:58;9.95;;;8.38;;
51612;SDS011;37694;51.748;14.326;2024-01-30T00:55:23;9.93;;;8.15;;
51612;SDS011;37694;51.748;14.326;2024-01-30T00:57:49;10.02;;;8.07;;
51612;SDS011;37694;51.748;14.326;2024-01-30T01:00:15;9.50;;;7.90;;
51612;SDS011;37694;51.748;14.326;2024-01-30T01:02:43;9.70;;;7.82;;
51612;SDS011;37694;51.748;14.326;2024-01-30T01:05:09;9.77;;;8.50;;
51612;SDS011;37694;51.748;14.326;2024-01-30T01:07:35;8.30;;;7.40;;
51612;SDS011;37694;51.748;14.326;2024-01-30T01:10:01;9.50;;;7.20;;
51612;SDS011;37694;51.748;14.326;2024-01-30T01:12:27;9.82;;;7.00;;
51612;SDS011;37694;51.748;14.326;2024-01-30T01:14:53;11.32;;;7.25;;
51612;SDS011;37694;51.748;14.326;2024-01-30T01:17:19;8.75;;;7.50;;
51612;SDS011;37694;51.748;14.326;2024-01-30T01:19:44;9.65;;;7.72;;
51612;SDS011;37694;51.748;14.326;2024-01-30T01:22:10;9.25;;;8.10;;
51612;SDS011;37694;51.748;14.326;2024-01-30T01:24:36;11.15;;;7.82;;
51612;SDS011;37694;51.748;14.326;2024-01-30T01:27:01;9.52;;;8.10;;
51612;SDS011;37694;51.748;14.326;2024-01-30T01:29:28;9.73;;;7.80;;
51612;SDS011;37694;51.748;14.326;2024-01-30T01:31:57;9.75;;;7.50;;
51612;SDS011;37694;51.748;14.326;2024-01-30T01:34:23;10.35;;;8.50;;
51612;SDS011;37694;51.748;14.326;2024-01-30T01:36:49;8.32;;;7.50;;
51612;SDS011;37694;51.748;14.326;2024-01-30T01:39:15;9.60;;;7.30;;
51612;SDS011;37694;51.748;14.326;2024-01-30T01:41:41;9.13;;;7.68;;
51612;SDS011;37694;51.748;14.326;2024-01-30T01:44:07;9.80;;;8.15;;
51612;SDS011;37694;51.748;14.326;2024-01-30T01:46:33;8.30;;;7.25;;
51612;SDS011;37694;51.748;14.326;2024-01-30T01:49:00;9.68;;;7.85;;
51612;SDS011;37694;51.748;14.326;2024-01-30T01:51:28;11.85;;;8.30;;
51612;SDS011;37694;51.748;14.326;2024-01-30T01:53:56;12.70;;;7.55;;
51612;SDS011;37694;51.748;14.326;2024-01-30T01:56:23;9.98;;;7.43;;
51612;SDS011;37694;51.748;14.326;2024-01-30T01:58:49;9.02;;;8.13;;
51612;SDS011;37694;51.748;14.326;2024-01-30T02:01:16;8.90;;;7.97;;
51612;SDS011;37694;51.748;14.326;2024-01-30T02:03:45;8.35;;;7.55;;
51612;SDS011;37694;51.748;14.326;2024-01-30T02:06:12;8.90;;;7.97;;
51612;SDS011;37694;51.748;14.326;2024-01-30T02:08:41;9.43;;;7.35;;
51612;SDS011;37694;51.748;14.326;2024-01-30T02:11:08;8.45;;;7.60;;
51612;SDS011;37694;51.748;14.326;2024-01-30T02:13:35;9.93;;;7.85;;
51612;SDS011;37694;51.748;14.326;2024-01-30T02:16:01;9.25;;;7.57;;
51612;SDS011;37694;51.748;14.326;2024-01-30T02:18:27;9.15;;;7.38;;
51612;SDS011;37694;51.748;14.326;2024-01-30T02:20:53;10.88;;;7.80;;
51612;SDS011;37694;51.748;14.326;2024-01-30T02:23:21;8.07;;;7.20;;
51612;SDS011;37694;51.748;14.326;2024-01-30T02:25:50;9.13;;;7.82;;
51612;SDS011;37694;51.748;14.326;2024-01-30T02:28:18;10.60;;;7.95;;
51612;SDS011;37694;51.748;14.326;2024-01-30T02:30:44;8.18;;;7.38;;
51612;SDS011;37694;51.748;14.326;2024-01-30T02:33:11;9.63;;;8.25;;
51612;SDS011;37694;51.748;14.326;2024-01-30T02:35:36;8.38;;;7.47;;
51612;SDS011;37694;51.748;14.326;2024-01-30T02:38:02;8.70;;;7.75;;
51612;SDS011;37694;51.748;14.326;2024-01-30T02:40:28;7.97;;;7.22;;
51612;SDS011;37694;51.748;14.326;2024-01-30T02:42:54;9.52;;;7.53;;
51612;SDS011;37694;51.748;14.326;2024-01-30T02:45:19;8.52;;;6.95;;
51612;SDS011;37694;51.748;14.326;2024-01-30T02:47:45;8.35;;;7.55;;
51612;SDS011;37694;51.748;14.326;2024-01-30T02:50:11;9.93;;;8.07;;
51612;SDS011;37694;51.748;14.326;2024-01-30T02:52:36;9.35;;;7.88;;
51612;SDS011;37694;51.748;14.326;2024-01-30T02:55:02;8.15;;;7.13;;
51612;SDS011;37694;51.748;14.326;2024-01-30T02:57:28;10.23;;;7.70;;
51612;SDS011;37694;51.748;14.326;2024-01-30T02:59:54;9.40;;;7.43;;
51612;SDS011;37694;51.748;14.326;2024-01-30T03:02:20;7.45;;;6.65;;
51612;SDS011;37694;51.748;14.326;2024-01-30T03:04:45;9.00;;;7.53;;
51612;SDS011;37694;51.748;14.326;2024-01-30T03:07:11;7.93;;;6.90;;
51612;SDS011;37694;51.748;14.326;2024-01-30T03:09:37;9.30;;;7.43;;
51612;SDS011;37694;51.748;14.326;2024-01-30T03:12:03;7.57;;;6.75;;
51612;SDS011;37694;51.748;14.326;2024-01-30T03:14:30;8.18;;;7.28;;
51612;SDS011;37694;51.748;14.326;2024-01-30T03:16:57;8.70;;;7.35;;
51612;SDS011;37694;51.748;14.326;2024-01-30T03:19:22;8.30;;;7.07;;
51612;SDS011;37694;51.748;14.326;2024-01-30T03:21:48;8.65;;;7.30;;
51612;SDS011;37694;51.748;14.326;2024-01-30T03:24:14;17.13;;;7.63;;
51612;SDS011;37694;51.748;14.326;2024-01-30T03:26:40;8.35;;;7.15;;
51612;SDS011;37694;51.748;14.326;2024-01-30T03:29:06;8.05;;;6.70;;
51612;SDS011;37694;51.748;14.326;2024-01-30T03:31:31;7.90;;;7.10;;
51612;SDS011;37694;51.748;14.326;2024-01-30T03:33:57;7.97;;;6.88;;
51612;SDS011;37694;51.748;14.326;2024-01-30T03:36:23;7.45;;;6.72;;
51612;SDS011;37694;51.748;14.326;2024-01-30T03:38:49;8.80;;;7.57;;
51612;SDS011;37694;51.748;14.326;2024-01-30T03:41:14;8.93;;;7.35;;
51612;SDS011;37694;51.748;14.326;2024-01-30T03:43:40;9.02;;;7.72;;
51612;SDS011;37694;51.748;14.326;2024-01-30T03:46:06;6.78;;;6.18;;
51612;SDS011;37694;51.748;14.326;2024-01-30T03:48:32;10.20;;;6.75;;
51612;SDS011;37694;51.748;14.326;2024-01-30T03:50:58;8.38;;;7.05;;
51612;SDS011;37694;51.748;14.326;2024-01-30T03:53:23;7.43;;;6.63;;
51612;SDS011;37694;51.748;14.326;2024-01-30T03:55:49;6.93;;;6.05;;
51612;SDS011;37694;51.748;14.326;2024-01-30T03:58:15;8.68;;;7.15;;
51612;SDS011;37694;51.748;14.326;2024-01-30T04:00:40;7.53;;;6.40;;
51612;SDS011;37694;51.748;14.326;2024-01-30T04:03:06;7.25;;;6.40;;
51612;SDS011;37694;51.748;14.326;2024-01-30T04:05:32;8.15;;;5.80;;
51612;SDS011;37694;51.748;14.326;2024-01-30T04:07:58;7.53;;;6.47;;
51612;SDS011;37694;51.748;14.326;2024-01-30T04:10:24;7.28;;;6.47;;
51612;SDS011;37694;51.748;14.326;2024-01-30T04:12:50;6.65;;;5.95;;
51612;SDS011;37694;51.748;14.326;2024-01-30T04:15:16;8.00;;;6.75;;
51612;SDS011;37694;51.748;14.326;2024-01-30T04:17:42;6.80;;;6.05;;
51612;SDS011;37694;51.748;14.326;2024-01-30T04:20:12;7.53;;;6.53;;
51612;SDS011;37694;51.748;14.326;2024-01-30T04:22:39;8.93;;;6.20;;
51612;SDS011;37694;51.748;14.326;2024-01-30T04:25:06;6.10;;;5.50;;
51612;SDS011;37694;51.748;14.326;2024-01-30T04:27:32;7.32;;;6.53;;
51612;SDS011;37694;51.748;14.326;2024-01-30T04:29:57;9.05;;;6.78;;
51612;SDS011;37694;51.748;14.326;2024-01-30T04:32:23;7.38;;;6.05;;
51612;SDS011;37694;51.748;14.326;2024-01-30T04:34:48;8.65;;;6.78;;
51612;SDS011;37694;51.748;14.326;2024-01-30T04:37:14;7.65;;;6.13;;
51612;SDS011;37694;51.748;14.326;2024-01-30T04:39:40;7.88;;;6.32;;
51612;SDS011;37694;51.748;14.326;2024-01-30T04:42:06;6.60;;;5.80;;
51612;SDS011;37694;51.748;14.326;2024-01-30T04:44:31;6.28;;;5.68;;
51612;SDS011;37694;51.748;14.326;2024-01-30T04:46:57;7.30;;;6.00;;
51612;SDS011;37694;51.748;14.326;2024-01-30T04:49:26;7.65;;;5.95;;
51612;SDS011;37694;51.748;14.326;2024-01-30T04:51:52;6.78;;;6.05;;
51612;SDS011;37694;51.748;14.326;2024-01-30T04:54:18;6.80;;;5.57;;
51612;SDS011;37694;51.748;14.326;2024-01-30T04:56:43;6.55;;;5.53;;
51612;SDS011;37694;51.748;14.326;2024-01-30T04:59:09;6.80;;;6.05;;
51612;SDS011;37694;51.748;14.326;2024-01-30T05:01:35;6.78;;;5.90;;
51612;SDS011;37694;51.748;14.326;2024-01-30T05:04:00;6.50;;;5.90;;
51612;SDS011;37694;51.748;14.326;2024-01-30T05:06:27;6.70;;;5.95;;
51612;SDS011;37694;51.748;14.326;2024-01-30T05:08:53;7.03;;;5.47;;
51612;SDS011;37694;51.748;14.326;2024-01-30T05:11:19;6.75;;;5.90;;
51612;SDS011;37694;51.748;14.326;2024-01-30T05:13:44;6.88;;;5.18;;
51612;SDS011;37694;51.748;14.326;2024-01-30T05:16:10;7.28;;;5.45;;
51612;SDS011;37694;51.748;14.326;2024-01-30T05:18:36;6.63;;;5.82;;
51612;SDS011;37694;51.748;14.326;2024-01-30T05:21:02;6.25;;;5.63;;
51612;SDS011;37694;51.748;14.326;2024-01-30T05:23:28;5.68;;;5.18;;
51612;SDS011;37694;51.748;14.326;2024-01-30T05:25:54;6.72;;;5.75;;
51612;SDS011;37694;51.748;14.326;2024-01-30T05:28:20;6.72;;;5.28;;
51612;SDS011;37694;51.748;14.326;2024-01-30T05:30:45;6.00;;;5.38;;
51612;SDS011;37694;51.748;14.326;2024-01-30T05:33:11;5.65;;;5.07;;
51612;SDS011;37694;51.748;14.326;2024-01-30T05:35:37;9.35;;;5.45;;
51612;SDS011;37694;51.748;14.326;2024-01-30T05:38:03;6.70;;;5.70;;
51612;SDS011;37694;51.748;14.326;2024-01-30T05:40:29;9.90;;;5.40;;
51612;SDS011;37694;51.748;14.326;2024-01-30T05:42:55;5.43;;;4.97;;
51612;SDS011;37694;51.748;14.326;2024-01-30T05:45:23;6.78;;;5.22;;
51612;SDS011;37694;51.748;14.326;2024-01-30T05:47:49;5.47;;;4.97;;
51612;SDS011;37694;51.748;14.326;2024-01-30T05:50:14;9.05;;;5.00;;
51612;SDS011;37694;51.748;14.326;2024-01-30T05:52:40;6.85;;;5.30;;
51612;SDS011;37694;51.748;14.326;2024-01-30T05:55:06;59.22;;;8.52;;
51612;SDS011;37694;51.748;14.326;2024-01-30T05:57:32;19.92;;;6.43;;
51612;SDS011;37694;51.748;14.326;2024-01-30T05:59:57;33.30;;;6.85;;
51612;SDS011;37694;51.748;14.326;2024-01-30T06:02:23;26.88;;;6.93;;
51612;SDS011;37694;51.748;14.326;2024-01-30T06:04:49;40.13;;;6.88;;
51612;SDS011;37694;51.748;14.326;2024-01-30T06:07:14;40.03;;;7.07;;
51612;SDS011;37694;51.748;14.326;2024-01-30T06:09:40;28.10;;;6.72;;
51612;SDS011;37694;51.748;14.326;2024-01-30T06:12:06;27.35;;;6.80;;
51612;SDS011;37694;51.748;14.326;2024-01-30T06:14:32;26.08;;;6.30;;
51612;SDS011;37694;51.748;14.326;2024-01-30T06:16:58;34.80;;;6.78;;
51612;SDS011;37694;51.748;14.326;2024-01-30T06:19:24;21.13;;;6.82;;
51612;SDS011;37694;51.748;14.326;2024-01-30T06:21:50;25.30;;;6.40;;
51612;SDS011;37694;51.748;14.326;2024-01-30T06:24:16;27.35;;;7.15;;
51612;SDS011;37694;51.748;14.326;2024-01-30T06:26:42;56.63;;;7.60;;
51612;SDS011;37694;51.748;14.326;2024-01-30T06:29:07;41.83;;;6.88;;
51612;SDS011;37694;51.748;14.326;2024-01-30T06:31:39;22.27;;;6.90;;
51612;SDS011;37694;51.748;14.326;2024-01-30T06:34:08;29.30;;;6.72;;
51612;SDS011;37694;51.748;14.326;2024-01-30T06:36:34;16.17;;;7.45;;
51612;SDS011;37694;51.748;14.326;2024-01-30T06:39:00;16.58;;;6.53;;
51612;SDS011;37694;51.748;14.326;2024-01-30T06:41:27;28.98;;;6.38;;
51612;SDS011;37694;51.748;14.326;2024-01-30T06:43:52;23.73;;;6.35;;
51612;SDS011;37694;51.748;14.326;2024-01-30T06:46:18;17.20;;;6.93;;
51612;SDS011;37694;51.748;14.326;2024-01-30T06:48:44;21.42;;;6.55;;
51612;SDS011;37694;51.748;14.326;2024-01-30T06:51:10;21.70;;;6.13;;
51612;SDS011;37694;51.748;14.326;2024-01-30T06:53:36;28.65;;;6.60;;
51612;SDS011;37694;51.748;14.326;2024-01-30T06:56:02;25.80;;;6.47;;
51612;SDS011;37694;51.748;14.326;2024-01-30T06:58:28;19.70;;;6.85;;
51612;SDS011;37694;51.748;14.326;2024-01-30T07:00:54;14.13;;;6.43;;
51612;SDS011;37694;51.748;14.326;2024-01-30T07:03:20;28.02;;;6.93;;
51612;SDS011;37694;51.748;14.326;2024-01-30T07:05:46;11.25;;;4.22;;
51612;SDS011;37694;51.748;14.326;2024-01-30T07:08:12;9.65;;;3.10;;
51612;SDS011;37694;51.748;14.326;2024-01-30T07:10:37;9.48;;;2.58;;
51612;SDS011;37694;51.748;14.326;2024-01-30T07:13:03;10.65;;;2.40;;
51612;SDS011;37694;51.748;14.326;2024-01-30T07:15:30;4.05;;;1.90;;
51612;SDS011;37694;51.748;14.326;2024-01-30T07:17:56;1.40;;;1.30;;
51612;SDS011;37694;51.748;14.326;2024-01-30T07:20:22;4.82;;;1.05;;
51612;SDS011;37694;51.748;14.326;2024-01-30T07:22:48;5.82;;;1.20;;
51612;SDS011;37694;51.748;14.326;2024-01-30T07:25:14;1.50;;;0.90;;
51612;SDS011;37694;51.748;14.326;2024-01-30T07:27:41;0.85;;;0.80;;
51612;SDS011;37694;51.748;14.326;2024-01-30T07:30:06;1.02;;;0.65;;
51612;SDS011;37694;51.748;14.326;2024-01-30T07:32:32;1.52;;;0.60;;
51612;SDS011;37694;51.748;14.326;2024-01-30T07:34:58;0.50;;;0.50;;
51612;SDS011;37694;51.748;14.326;2024-01-30T07:37:23;1.63;;;0.57;;
51612;SDS011;37694;51.748;14.326;2024-01-30T07:39:49;0.47;;;0.47;;
51612;SDS011;37694;51.748;14.326;2024-01-30T07:42:15;0.50;;;0.50;;
51612;SDS011;37694;51.748;14.326;2024-01-30T07:44:41;0.63;;;0.40;;
51612;SDS011;37694;51.748;14.326;2024-01-30T07:47:06;0.30;;;0.30;;
51612;SDS011;37694;51.748;14.326;2024-01-30T07:49:32;0.40;;;0.40;;
51612;SDS011;37694;51.748;14.326;2024-01-30T07:51:58;0.85;;;0.52;;
51612;SDS011;37694;51.748;14.326;2024-01-30T07:54:27;0.47;;;0.47;;
51612;SDS011;37694;51.748;14.326;2024-01-30T07:56:58;0.30;;;0.30;;
51612;SDS011;37694;51.748;14.326;2024-01-30T07:59:25;0.30;;;0.30;;
51612;SDS011;37694;51.748;14.326;2024-01-30T08:01:50;0.17;;;0.17;;
51612;SDS011;37694;51.748;14.326;2024-01-30T08:04:16;0.20;;;0.20;;
51612;SDS011;37694;51.748;14.326;2024-01-30T08:06:42;0.30;;;0.30;;
51612;SDS011;37694;51.748;14.326;2024-01-30T08:09:08;0.40;;;0.40;;
51612;SDS011;37694;51.748;14.326;2024-01-30T08:11:33;0.52;;;0.50;;
51612;SDS011;37694;51.748;14.326;2024-01-30T08:13:59;0.70;;;0.70;;
51612;SDS011;37694;51.748;14.326;2024-01-30T08:16:25;0.80;;;0.80;;
51612;SDS011;37694;51.748;14.326;2024-01-30T08:18:50;0.98;;;0.98;;
51612;SDS011;37694;51.748;14.326;2024-01-30T08:21:18;1.40;;;1.27;;
51612;SDS011;37694;51.748;14.326;2024-01-30T08:23:43;1.13;;;0.93;;
51612;SDS011;37694;51.748;14.326;2024-01-30T08:26:09;1.25;;;1.10;;
51612;SDS011;37694;51.748;14.326;2024-01-30T08:28:35;2.78;;;1.05;;
51612;SDS011;37694;51.748;14.326;2024-01-30T08:31:01;3.20;;;1.10;;
51612;SDS011;37694;51.748;14.326;2024-01-30T08:33:26;1.10;;;1.10;;
51612;SDS011;37694;51.748;14.326;2024-01-30T08:35:52;1.45;;;1.35;;
51612;SDS011;37694;51.748;14.326;2024-01-30T08:38:18;1.27;;;1.10;;
51612;SDS011;37694;51.748;14.326;2024-01-30T08:40:44;1.10;;;1.10;;
51612;SDS011;37694;51.748;14.326;2024-01-30T08:43:10;1.45;;;1.33;;
51612;SDS011;37694;51.748;14.326;2024-01-30T08:45:36;1.60;;;1.50;;
51612;SDS011;37694;51.748;14.326;2024-01-30T08:48:01;1.10;;;1.10;;
51612;SDS011;37694;51.748;14.326;2024-01-30T08:50:27;2.40;;;1.30;;
51612;SDS011;37694;51.748;14.326;2024-01-30T08:52:53;1.60;;;1.45;;
51612;SDS011;37694;51.748;14.326;2024-01-30T08:55:18;2.10;;;1.40;;
51612;SDS011;37694;51.748;14.326;2024-01-30T08:57:44;2.13;;;1.92;;
51612;SDS011;37694;51.748;14.326;2024-01-30T09:00:10;1.40;;;1.30;;
51612;SDS011;37694;51.748;14.326;2024-01-30T09:02:36;1.98;;;1.55;;
51612;SDS011;37694;51.748;14.326;2024-01-30T09:05:02;1.60;;;1.50;;
51612;SDS011;37694;51.748;14.326;2024-01-30T09:07:27;1.70;;;1.58;;
51612;SDS011;37694;51.748;14.326;2024-01-30T09:09:53;1.77;;;1.67;;
51612;SDS011;37694;51.748;14.326;2024-01-30T09:12:19;2.17;;;1.95;;
51612;SDS011;37694;51.748;14.326;2024-01-30T09:14:45;1.75;;;1.58;;
51612;SDS011;37694;51.748;14.326;2024-01-30T09:17:10;2.00;;;1.90;;
51612;SDS011;37694;51.748;14.326;2024-01-30T09:19:36;2.15;;;1.95;;
51612;SDS011;37694;51.748;14.326;2024-01-30T09:22:02;2.13;;;2.00;;
51612;SDS011;37694;51.748;14.326;2024-01-30T09:24:28;2.25;;;2.05;;
51612;SDS011;37694;51.748;14.326;2024-01-30T09:26:54;2.33;;;2.13;;
51612;SDS011;37694;51.748;14.326;2024-01-30T09:29:19;2.30;;;2.10;;
51612;SDS011;37694;51.748;14.326;2024-01-30T09:31:46;2.60;;;2.17;;
51612;SDS011;37694;51.748;14.326;2024-01-30T09:34:12;2.30;;;2.10;;
51612;SDS011;37694;51.748;14.326;2024-01-30T09:36:38;2.53;;;2.20;;
51612;SDS011;37694;51.748;14.326;2024-01-30T09:39:04;3.33;;;2.38;;
51612;SDS011;37694;51.748;14.326;2024-01-30T09:41:32;3.05;;;2.60;;
51612;SDS011;37694;51.748;14.326;2024-01-30T09:43:58;3.00;;;2.63;;
51612;SDS011;37694;51.748;14.326;2024-01-30T09:46:26;3.75;;;1.90;;
51612;SDS011;37694;51.748;14.326;2024-01-30T09:48:53;2.88;;;2.35;;
51612;SDS011;37694;51.748;14.326;2024-01-30T09:51:20;3.58;;;2.85;;
51612;SDS011;37694;51.748;14.326;2024-01-30T09:53:47;3.15;;;2.80;;
51612;SDS011;37694;51.748;14.326;2024-01-30T09:56:14;2.80;;;2.60;;
51612;SDS011;37694;51.748;14.326;2024-01-30T09:58:39;2.95;;;2.65;;
51612;SDS011;37694;51.748;14.326;2024-01-30T10:01:05;2.67;;;2.20;;
51612;SDS011;37694;51.748;14.326;2024-01-30T10:03:31;3.72;;;2.78;;
51612;SDS011;37694;51.748;14.326;2024-01-30T10:05:57;2.85;;;2.60;;
51612;SDS011;37694;51.748;14.326;2024-01-30T10:08:23;2.75;;;2.53;;
51612;SDS011;37694;51.748;14.326;2024-01-30T10:10:49;3.40;;;2.97;;
51612;SDS011;37694;51.748;14.326;2024-01-30T10:13:15;2.88;;;2.58;;
51612;SDS011;37694;51.748;14.326;2024-01-30T10:15:41;3.08;;;2.75;;
51612;SDS011;37694;51.748;14.326;2024-01-30T10:18:10;2.60;;;2.40;;
51612;SDS011;37694;51.748;14.326;2024-01-30T10:20:36;3.42;;;2.58;;
51612;SDS011;37694;51.748;14.326;2024-01-30T10:23:02;3.13;;;2.75;;
51612;SDS011;37694;51.748;14.326;2024-01-30T10:25:32;3.05;;;2.58;;
51612;SDS011;37694;51.748;14.326;2024-01-30T10:27:58;4.72;;;3.15;;
51612;SDS011;37694;51.748;14.326;2024-01-30T10:30:24;3.95;;;3.00;;
51612;SDS011;37694;51.748;14.326;2024-01-30T10:32:50;3.42;;;3.13;;
51612;SDS011;37694;51.748;14.326;2024-01-30T10:35:16;3.35;;;3.05;;
51612;SDS011;37694;51.748;14.326;2024-01-30T10:37:46;3.92;;;3.03;;
51612;SDS011;37694;51.748;14.326;2024-01-30T10:40:13;2.95;;;2.70;;
51612;SDS011;37694;51.748;14.326;2024-01-30T10:42:44;3.30;;;3.00;;
51612;SDS011;37694;51.748;14.326;2024-01-30T10:45:11;4.18;;;3.60;;
51612;SDS011;37694;51.748;14.326;2024-01-30T10:47:39;3.85;;;3.42;;
51612;SDS011;37694;51.748;14.326;2024-01-30T10:50:07;4.10;;;3.22;;
51612;SDS011;37694;51.748;14.326;2024-01-30T10:52:34;3.95;;;3.22;;
51612;SDS011;37694;51.748;14.326;2024-01-30T10:55:00;6.40;;;3.53;;
51612;SDS011;37694;51.748;14.326;2024-01-30T10:57:26;3.85;;;3.15;;
51612;SDS011;37694;51.748;14.326;2024-01-30T11:00:02;5.18;;;4.28;;
51612;SDS011;37694;51.748;14.326;2024-01-30T11:02:39;4.13;;;3.65;;
51612;SDS011;37694;51.748;14.326;2024-01-30T11:05:07;3.97;;;3.63;;
51612;SDS011;37694;51.748;14.326;2024-01-30T11:07:33;3.28;;;2.97;;
51612;SDS011;37694;51.748;14.326;2024-01-30T11:12:27;4.30;;;3.53;;
51612;SDS011;37694;51.748;14.326;2024-01-30T11:20:16;3.97;;;3.58;;
51612;SDS011;37694;51.748;14.326;2024-01-30T11:22:46;3.85;;;3.15;;
51612;SDS011;37694;51.748;14.326;2024-01-30T11:25:17;4.28;;;3.72;;
51612;SDS011;37694;51.748;14.326;2024-01-30T11:27:44;4.35;;;3.38;;
51612;SDS011;37694;51.748;14.326;2024-01-30T11:30:10;3.67;;;3.30;;
51612;SDS011;37694;51.748;14.326;2024-01-30T11:32:46;3.67;;;3.22;;
51612;SDS011;37694;51.748;14.326;2024-01-30T11:35:22;3.90;;;3.60;;
51612;SDS011;37694;51.748;14.326;2024-01-30T11:37:50;3.75;;;3.30;;
51612;SDS011;37694;51.748;14.326;2024-01-30T11:40:16;4.38;;;3.50;;
51612;SDS011;37694;51.748;14.326;2024-01-30T11:42:42;4.35;;;3.80;;
51612;SDS011;37694;51.748;14.326;2024-01-30T11:45:08;3.75;;;3.20;;
51612;SDS011;37694;51.748;14.326;2024-01-30T11:47:37;3.67;;;3.38;;
51612;SDS011;37694;51.748;14.326;2024-01-30T11:50:04;3.42;;;3.13;;
51612;SDS011;37694;51.748;14.326;2024-01-30T11:52:32;4.10;;;3.50;;
51612;SDS011;37694;51.748;14.326;2024-01-30T11:54:58;3.70;;;3.35;;
51612;SDS011;37694;51.748;14.326;2024-01-30T11:57:26;3.72;;;3.30;;
51612;SDS011;37694;51.748;14.326;2024-01-30T11:59:52;3.88;;;3.40;;
51612;SDS011;37694;51.748;14.326;2024-01-30T12:02:18;4.47;;;3.75;;
51612;SDS011;37694;51.748;14.326;2024-01-30T12:04:44;3.90;;;3.50;;
51612;SDS011;37694;51.748;14.326;2024-01-30T12:07:09;4.40;;;3.50;;
51612;SDS011;37694;51.748;14.326;2024-01-30T12:09:36;4.25;;;3.85;;
51612;SDS011;37694;51.748;14.326;2024-01-30T12:12:01;4.32;;;3.75;;
51612;SDS011;37694;51.748;14.326;2024-01-30T12:14:27;4.43;;;4.00;;
51612;SDS011;37694;51.748;14.326;2024-01-30T12:16:53;4.10;;;3.70;;
51612;SDS011;37694;51.748;14.326;2024-01-30T12:19:23;3.92;;;3.60;;
51612;SDS011;37694;51.748;14.326;2024-01-30T12:21:58;5.28;;;3.97;;
51612;SDS011;37694;51.748;14.326;2024-01-30T12:24:25;3.92;;;3.53;;
51612;SDS011;37694;51.748;14.326;2024-01-30T12:26:51;4.63;;;3.97;;
51612;SDS011;37694;51.748;14.326;2024-01-30T12:29:17;4.07;;;3.70;;
51612;SDS011;37694;51.748;14.326;2024-01-30T12:31:45;4.60;;;3.88;;
51612;SDS011;37694;51.748;14.326;2024-01-30T12:34:13;4.60;;;4.03;;
51612;SDS011;37694;51.748;14.326;2024-01-30T12:36:40;4.75;;;3.72;;
51612;SDS011;37694;51.748;14.326;2024-01-30T12:39:06;4.70;;;4.00;;
51612;SDS011;37694;51.748;14.326;2024-01-30T12:41:36;3.78;;;3.33;;
51612;SDS011;37694;51.748;14.326;2024-01-30T12:44:01;4.65;;;4.18;;
51612;SDS011;37694;51.748;14.326;2024-01-30T12:46:27;3.92;;;3.47;;
51612;SDS011;37694;51.748;14.326;2024-01-30T12:48:54;4.00;;;3.60;;
51612;SDS011;37694;51.748;14.326;2024-01-30T12:51:19;4.93;;;4.43;;
51612;SDS011;37694;51.748;14.326;2024-01-30T12:53:45;4.45;;;3.90;;
51612;SDS011;37694;51.748;14.326;2024-01-30T12:56:13;4.10;;;3.80;;
51612;SDS011;37694;51.748;14.326;2024-01-30T12:58:39;4.00;;;3.45;;
51612;SDS011;37694;51.748;14.326;2024-01-30T13:01:06;4.75;;;3.80;;
51612;SDS011;37694;51.748;14.326;2024-01-30T13:03:32;3.97;;;3.58;;
51612;SDS011;37694;51.748;14.326;2024-01-30T13:05:58;5.05;;;3.97;;
51612;SDS011;37694;51.748;14.326;2024-01-30T13:08:23;6.07;;;3.90;;
51612;SDS011;37694;51.748;14.326;2024-01-30T13:10:49;5.00;;;4.30;;
51612;SDS011;37694;51.748;14.326;2024-01-30T13:13:15;4.88;;;4.10;;
51612;SDS011;37694;51.748;14.326;2024-01-30T13:15:41;4.53;;;4.13;;
51612;SDS011;37694;51.748;14.326;2024-01-30T13:18:06;5.38;;;4.38;;
51612;SDS011;37694;51.748;14.326;2024-01-30T13:20:32;4.90;;;4.25;;
51612;SDS011;37694;51.748;14.326;2024-01-30T13:22:57;4.13;;;3.70;;
51612;SDS011;37694;51.748;14.326;2024-01-30T13:25:23;3.90;;;3.50;;
51612;SDS011;37694;51.748;14.326;2024-01-30T13:27:49;3.67;;;3.38;;
51612;SDS011;37694;51.748;14.326;2024-01-30T13:30:15;6.72;;;4.20;;
51612;SDS011;37694;51.748;14.326;2024-01-30T13:32:41;4.10;;;3.70;;
51612;SDS011;37694;51.748;14.326;2024-01-30T13:35:09;4.95;;;4.22;;
51612;SDS011;37694;51.748;14.326;2024-01-30T13:37:34;4.80;;;4.32;;
51612;SDS011;37694;51.748;14.326;2024-01-30T13:40:01;4.82;;;4.10;;
51612;SDS011;37694;51.748;14.326;2024-01-30T13:42:32;5.43;;;3.80;;
51612;SDS011;37694;51.748;14.326;2024-01-30T13:44:57;4.15;;;3.75;;
51612;SDS011;37694;51.748;14.326;2024-01-30T13:47:23;3.95;;;3.53;;
51612;SDS011;37694;51.748;14.326;2024-01-30T13:49:50;4.07;;;3.67;;
51612;SDS011;37694;51.748;14.326;2024-01-30T13:52:17;6.65;;;4.38;;
51612;SDS011;37694;51.748;14.326;2024-01-30T13:54:43;4.47;;;4.07;;
51612;SDS011;37694;51.748;14.326;2024-01-30T13:57:09;4.40;;;3.95;;
51612;SDS011;37694;51.748;14.326;2024-01-30T13:59:35;5.03;;;4.53;;
51612;SDS011;37694;51.748;14.326;2024-01-30T14:02:00;4.50;;;3.97;;
51612;SDS011;37694;51.748;14.326;2024-01-30T14:04:26;4.75;;;4.30;;
51612;SDS011;37694;51.748;14.326;2024-01-30T14:06:52;3.92;;;3.55;;
51612;SDS011;37694;51.748;14.326;2024-01-30T14:09:17;5.32;;;4.10;;
51612;SDS011;37694;51.748;14.326;2024-01-30T14:11:43;4.43;;;3.83;;
51612;SDS011;37694;51.748;14.326;2024-01-30T14:14:09;4.10;;;3.40;;
51612;SDS011;37694;51.748;14.326;2024-01-30T14:16:34;3.92;;;3.58;;
51612;SDS011;37694;51.748;14.326;2024-01-30T14:19:00;4.53;;;4.13;;
51612;SDS011;37694;51.748;14.326;2024-01-30T14:21:26;5.10;;;4.00;;
51612;SDS011;37694;51.748;14.326;2024-01-30T14:23:52;4.63;;;3.80;;
51612;SDS011;37694;51.748;14.326;2024-01-30T14:26:17;4.30;;;3.80;;
51612;SDS011;37694;51.748;14.326;2024-01-30T14:28:43;4.57;;;4.13;;
51612;SDS011;37694;51.748;14.326;2024-01-30T14:31:10;3.97;;;3.60;;
51612;SDS011;37694;51.748;14.326;2024-01-30T14:33:36;5.15;;;3.90;;
51612;SDS011;37694;51.748;14.326;2024-01-30T14:36:02;4.68;;;4.05;;